createdAt,value
2019-02-09T00:02:19.435Z,99870.67
2019-02-09T00:06:03.400Z,99867.83
2019-02-09T00:09:48.045Z,99869.75
2019-02-09T00:13:51.493Z,99864.16
2019-02-09T00:17:36.430Z,99858.81
2019-02-09T00:21:21.050Z,99836.67
2019-02-09T00:25:26.250Z,99852.45
2019-02-09T00:29:11.215Z,99860.77
2019-02-09T00:32:55.870Z,99833.70
2019-02-09T00:36:40.451Z,99835.36
2019-02-09T00:40:25.288Z,99823.48
2019-02-09T00:44:10.089Z,99826.25
2019-02-09T00:47:54.740Z,99818.15
2019-02-09T00:51:39.386Z,99803.52
2019-02-09T00:55:16.491Z,99805.16
2019-02-09T00:59:01.087Z,99807.52
2019-02-09T01:02:45.668Z,99822.83
2019-02-09T01:06:30.311Z,99790.63
2019-02-09T01:10:15.470Z,99792.33
2019-02-09T01:14:00.354Z,99782.89
2019-02-09T01:17:45.009Z,99780.83
2019-02-09T01:21:29.601Z,99770.59
2019-02-09T01:25:14.337Z,99782.20
2019-02-09T01:28:59.230Z,99785.09
2019-02-09T01:32:43.885Z,99807.06
2019-02-09T01:36:28.510Z,99801.33
2019-02-09T01:40:53.661Z,99793.16
2019-02-09T01:44:38.251Z,99792.19
2019-02-09T01:48:22.878Z,99790.08
2019-02-09T01:52:07.929Z,99786.50
2019-02-09T01:55:44.722Z,99777.83
2019-02-09T01:59:29.627Z,99778.13
2019-02-09T02:03:14.268Z,99764.69
2019-02-09T02:06:58.924Z,99779.45
2019-02-09T02:10:43.519Z,99780.88
2019-02-09T02:14:28.132Z,99783.73
2019-02-09T02:18:13.063Z,99775.14
2019-02-09T02:21:57.699Z,99788.16
2019-02-09T02:25:42.376Z,99784.73
2019-02-09T02:29:26.990Z,99777.64
2019-02-09T02:33:11.599Z,99778.13
2019-02-09T02:36:56.195Z,99762.58
2019-02-09T02:40:41.245Z,99763.08
2019-02-09T02:44:25.890Z,99746.59
2019-02-09T02:48:10.498Z,99725.05
2019-02-09T02:55:51.361Z,99734.21
2019-02-09T02:59:36.214Z,99743.39
2019-02-09T03:03:21.053Z,99748.64
2019-02-09T03:07:05.875Z,99774.70
2019-02-09T03:14:40.832Z,99764.56
2019-02-09T03:18:25.708Z,99770.67
2019-02-09T03:22:10.332Z,99767.26
2019-02-09T03:25:55.583Z,99781.33
2019-02-09T03:34:10.106Z,99781.05
2019-02-09T03:37:54.721Z,99788.30
2019-02-09T03:41:58.235Z,99808.78
2019-02-09T03:45:42.820Z,99803.45
2019-02-09T03:53:14.115Z,99808.71
2019-02-09T03:56:58.725Z,99818.23
2019-02-09T04:00:43.364Z,99820.09
2019-02-09T04:08:17.794Z,99838.20
2019-02-09T04:12:02.776Z,99842.20
2019-02-09T04:15:47.400Z,99838.95
2019-02-09T04:19:31.986Z,99850.67
2019-02-09T04:27:20.423Z,99834.03
2019-02-09T04:31:06.706Z,99841.31
2019-02-09T04:42:32.113Z,99856.27
2019-02-09T04:46:16.717Z,99878.33
2019-02-09T04:50:01.365Z,99882.69
2019-02-09T04:53:38.392Z,99869.31
2019-02-09T04:57:23.379Z,99878.70
2019-02-09T05:01:13.760Z,99870.53
2019-02-09T05:05:13.785Z,99875.76
2019-02-09T05:08:58.473Z,99868.41
2019-02-09T05:12:43.420Z,99880.21
2019-02-09T05:20:20.631Z,99883.25
2019-02-09T05:24:05.551Z,99882.05
2019-02-09T05:27:50.161Z,99896.92
2019-02-09T05:31:34.767Z,99898.27
2019-02-09T05:35:19.379Z,99909.67
2019-02-09T05:38:44.989Z,99910.77
2019-02-09T05:42:10.557Z,99909.60
2019-02-09T05:45:36.220Z,99909.81
2019-02-09T05:49:01.852Z,99933.99
2019-02-09T05:52:27.424Z,99927.63
2019-02-09T05:55:53.049Z,99935.73
2019-02-09T05:59:18.907Z,99952.04
2019-02-09T06:02:44.468Z,99957.88
2019-02-09T06:06:10.213Z,99962.52
2019-02-09T06:09:35.856Z,99976.70
2019-02-09T06:13:06.407Z,99999.39
2019-02-09T06:16:32.130Z,99982.70
2019-02-09T06:19:58.046Z,99993.25
2019-02-09T06:23:23.661Z,99996.62
2019-02-09T06:26:49.258Z,99979.31
2019-02-09T06:30:22.106Z,99982.53
2019-02-09T06:33:47.711Z,99996.94
2019-02-09T06:37:13.324Z,99974.82
2019-02-09T06:40:39.259Z,99973.98
2019-02-09T06:44:05.035Z,99986.80
2019-02-09T06:47:30.598Z,99991.13
2019-02-09T06:50:58.473Z,99996.16
2019-02-09T06:54:24.421Z,99994.88
2019-02-09T06:57:50.182Z,100019.21
2019-02-09T07:01:15.848Z,100023.67
2019-02-09T07:04:41.514Z,100034.80
2019-02-09T07:08:07.458Z,100046.77
2019-02-09T07:11:33.384Z,100069.67
2019-02-09T07:14:59.312Z,100066.42
2019-02-09T07:18:24.984Z,100071.06
2019-02-09T07:21:53.057Z,100070.28
2019-02-09T07:25:22.101Z,100062.05
2019-02-09T07:28:47.787Z,100089.79
2019-02-09T07:32:18.483Z,100076.16
2019-02-09T07:35:44.126Z,100084.99
2019-02-09T07:39:11.115Z,100085.74
2019-02-09T07:42:36.806Z,100095.83
2019-02-09T07:46:02.779Z,100110.70
2019-02-09T07:49:28.365Z,100101.06
2019-02-09T07:52:56.097Z,100096.19
2019-02-09T07:56:21.975Z,100110.95
2019-02-09T07:59:51.900Z,100100.78
2019-02-09T08:03:25.764Z,100132.80
2019-02-09T08:06:51.781Z,100121.70
2019-02-09T08:10:22.639Z,100144.68
2019-02-09T08:13:57.487Z,100142.52
2019-02-09T08:17:33.225Z,100151.44
2019-02-09T08:21:07.499Z,100143.20
2019-02-09T08:24:36.338Z,100174.09
2019-02-09T08:28:05.974Z,100172.93
2019-02-09T08:31:31.848Z,100143.98
2019-02-09T08:34:59.131Z,100151.63
2019-02-09T08:38:36.832Z,100134.89
2019-02-09T08:42:02.846Z,100143.87
2019-02-09T08:45:28.395Z,100150.73
2019-02-09T08:48:59.248Z,100150.41
2019-02-09T08:52:39.388Z,100189.67
2019-02-09T08:56:01.977Z,100167.42
2019-02-09T08:59:27.595Z,100158.13
2019-02-09T09:02:53.695Z,100164.73
2019-02-09T09:06:19.320Z,100158.97
2019-02-09T09:09:45.034Z,100230.04
2019-02-09T09:13:10.663Z,100169.88
2019-02-09T09:16:36.268Z,100170.44
2019-02-09T09:20:01.972Z,100189.13
2019-02-09T09:23:27.598Z,100184.88
2019-02-09T09:26:53.566Z,100197.90
2019-02-09T09:30:22.446Z,100203.81
2019-02-09T09:33:48.111Z,100213.24
2019-02-09T09:37:13.741Z,100212.50
2019-02-09T09:40:41.669Z,100208.24
2019-02-09T09:44:07.703Z,100201.27
2019-02-09T09:47:33.461Z,100213.76
2019-02-09T09:50:59.173Z,100218.48
2019-02-09T09:54:24.920Z,100223.42
2019-02-09T09:57:50.518Z,100213.02
2019-02-09T10:01:16.160Z,100219.91
2019-02-09T10:04:41.870Z,100228.65
2019-02-09T10:08:08.080Z,100212.85
2019-02-09T10:11:37.381Z,100226.46
2019-02-09T10:15:03.032Z,100224.23
2019-02-09T10:18:28.699Z,100223.86
2019-02-09T10:21:54.334Z,100250.02
2019-02-09T10:25:20.372Z,100233.52
2019-02-09T10:28:46.123Z,100249.23
2019-02-09T10:32:11.661Z,100248.48
2019-02-09T10:35:37.290Z,100274.82
2019-02-09T10:39:03.599Z,100284.17
2019-02-09T10:42:29.542Z,100246.02
2019-02-09T10:45:55.185Z,100261.98
2019-02-09T10:49:20.722Z,100267.39
2019-02-09T10:52:46.310Z,100289.77
2019-02-09T10:56:11.984Z,100274.24
2019-02-09T10:59:37.571Z,100279.05
2019-02-09T11:03:05.833Z,100272.74
2019-02-09T11:06:31.472Z,100274.06
2019-02-09T11:09:57.071Z,100267.16
2019-02-09T11:13:22.673Z,100261.98
2019-02-09T11:16:48.236Z,100294.53
2019-02-09T11:20:17.020Z,100267.20
2019-02-09T11:23:42.719Z,100279.62
2019-02-09T11:27:08.276Z,100294.69
2019-02-09T11:30:34.220Z,100290.09
2019-02-09T11:33:59.773Z,100260.23
2019-02-09T11:37:25.916Z,100253.67
2019-02-09T11:40:51.491Z,100235.28
2019-02-09T11:44:17.095Z,100233.50
2019-02-09T11:47:43.018Z,100247.02
2019-02-09T11:51:09.048Z,100244.02
2019-02-09T11:54:34.665Z,100250.72
2019-02-09T11:58:02.746Z,100271.16
2019-02-09T12:01:28.404Z,100245.62
2019-02-09T12:04:54.248Z,100249.35
2019-02-09T12:08:19.882Z,100272.02
2019-02-09T12:11:45.609Z,100271.57
2019-02-09T12:15:16.723Z,100259.41
2019-02-09T12:18:42.381Z,100294.09
2019-02-09T12:22:08.281Z,100260.47
2019-02-09T12:25:35.397Z,100246.12
2019-02-09T12:29:01.273Z,100275.66
2019-02-09T12:32:27.144Z,100306.34
2019-02-09T12:35:53.075Z,100279.78
2019-02-09T12:39:18.655Z,100286.44
2019-02-09T12:42:44.186Z,100283.84
2019-02-09T12:46:09.805Z,100283.56
2019-02-09T12:49:35.499Z,100280.03
2019-02-09T12:53:02.140Z,100287.41
2019-02-09T12:56:27.783Z,100306.42
2019-02-09T12:59:53.429Z,100268.86
2019-02-09T13:03:31.026Z,100264.23
2019-02-09T13:06:55.771Z,100277.56
2019-02-09T13:10:21.720Z,100291.47
2019-02-09T13:13:47.310Z,100294.50
2019-02-09T13:17:12.959Z,100294.67
2019-02-09T13:20:38.667Z,100281.37
2019-02-09T13:24:04.409Z,100285.95
2019-02-09T13:27:30.040Z,100276.43
2019-02-09T13:30:55.611Z,100284.00
2019-02-09T13:34:21.216Z,100279.16
2019-02-09T13:37:47.190Z,100286.57
2019-02-09T13:41:12.799Z,100282.77
2019-02-09T13:44:38.382Z,100281.52
2019-02-09T13:48:04.065Z,100288.46
2019-02-09T13:51:29.687Z,100293.59
2019-02-09T13:54:55.782Z,100290.25
2019-02-09T13:58:21.373Z,100293.09
2019-02-09T14:01:47.026Z,100334.56
2019-02-09T14:05:12.897Z,100320.94
2019-02-09T14:08:38.491Z,100335.63
2019-02-09T14:12:04.428Z,100324.89
2019-02-09T14:15:32.012Z,100333.71
2019-02-09T14:19:16.798Z,100376.15
2019-02-09T14:22:42.587Z,100400.94
2019-02-09T14:26:08.276Z,100380.26
2019-02-09T14:29:34.300Z,100364.77
2019-02-09T14:33:00.038Z,100357.19
2019-02-09T14:36:25.730Z,100366.41
2019-02-09T14:40:33.735Z,100387.45
2019-02-09T14:43:59.345Z,100370.55
2019-02-09T14:47:24.948Z,100374.55
2019-02-09T14:50:50.541Z,100383.70
2019-02-09T14:54:16.175Z,100376.19
2019-02-09T14:57:41.862Z,100391.97
2019-02-09T15:01:07.541Z,100395.97
2019-02-09T15:04:33.137Z,100399.98
2019-02-09T15:07:59.128Z,100402.95
2019-02-09T15:11:24.828Z,100383.75
2019-02-09T15:14:50.604Z,100387.02
2019-02-09T15:18:16.242Z,100389.16
2019-02-09T15:21:41.810Z,100412.45
2019-02-09T15:25:09.018Z,100409.92
2019-02-09T15:28:34.602Z,100430.55
2019-02-09T15:32:00.204Z,100392.78
2019-02-09T15:35:26.038Z,100401.23
2019-02-09T15:38:51.611Z,100405.08
2019-02-09T15:42:17.476Z,100397.08
2019-02-09T15:45:43.058Z,100397.30
2019-02-09T15:49:08.855Z,100394.33
2019-02-09T15:52:34.569Z,100404.98
2019-02-09T15:56:06.959Z,100391.81
2019-02-09T15:59:32.511Z,100393.34
2019-02-09T16:02:59.028Z,100400.39
2019-02-09T16:06:24.662Z,100393.42
2019-02-09T16:09:50.269Z,100416.56
2019-02-09T16:13:15.957Z,100399.03
2019-02-09T16:16:41.535Z,100421.64
2019-02-09T16:20:09.077Z,100415.27
2019-02-09T16:23:34.702Z,100430.09
2019-02-09T16:27:00.322Z,100432.84
2019-02-09T16:30:26.728Z,100423.19
2019-02-09T16:33:52.390Z,100444.63
2019-02-09T16:37:18.009Z,100418.96
2019-02-09T16:40:43.662Z,100429.20
2019-02-09T16:44:09.303Z,100443.59
2019-02-09T16:47:34.970Z,100437.75
2019-02-09T16:51:00.560Z,100446.05
2019-02-09T16:54:26.141Z,100462.20
2019-02-09T16:57:51.916Z,100480.66
2019-02-09T17:01:17.560Z,100482.08
2019-02-09T17:04:43.162Z,100499.03
2019-02-09T17:08:09.264Z,100473.42
2019-02-09T17:11:34.842Z,100496.24
2019-02-09T17:15:00.570Z,100485.90
2019-02-09T17:18:26.191Z,100489.14
2019-02-09T17:21:51.866Z,100494.55
2019-02-09T17:25:17.831Z,100497.20
2019-02-09T17:28:43.517Z,100484.52
2019-02-09T17:32:09.127Z,100492.86
2019-02-09T17:35:34.776Z,100497.50
2019-02-09T17:39:00.337Z,100497.13
2019-02-09T17:42:26.337Z,100495.36
2019-02-09T17:45:56.355Z,100515.45
2019-02-09T17:49:22.073Z,100503.62
2019-02-09T17:52:47.634Z,100515.58
2019-02-09T17:56:13.217Z,100524.83
2019-02-09T17:59:38.779Z,100519.59
2019-02-09T18:03:04.473Z,100518.70
2019-02-09T18:06:30.041Z,100512.75
2019-02-09T18:09:55.984Z,100515.58
2019-02-09T18:13:21.618Z,100522.52
2019-02-09T18:16:47.203Z,100544.62
2019-02-09T18:20:14.454Z,100526.75
2019-02-09T18:23:40.034Z,100527.53
2019-02-09T18:27:05.963Z,100536.06
2019-02-09T18:30:31.709Z,100530.38
2019-02-09T18:33:57.324Z,100522.34
2019-02-09T18:37:22.896Z,100527.16
2019-02-09T18:40:48.873Z,100529.73
2019-02-09T18:44:14.540Z,100521.52
2019-02-09T18:47:40.185Z,100532.31
2019-02-09T18:51:05.769Z,100536.84
2019-02-09T18:54:31.426Z,100533.34
2019-02-09T18:57:57.234Z,100538.42
2019-02-09T19:01:22.884Z,100544.97
2019-02-09T19:04:48.495Z,100541.84
2019-02-09T19:08:13.398Z,100543.25
2019-02-09T19:11:39.040Z,100542.84
2019-02-09T19:15:06.472Z,100552.31
2019-02-09T19:18:32.116Z,100555.77
2019-02-09T19:21:57.674Z,100555.75
2019-02-09T19:25:23.377Z,100547.22
2019-02-09T19:28:49.859Z,100551.95
2019-02-09T19:32:15.468Z,100559.26
2019-02-09T19:35:41.028Z,100548.78
2019-02-09T19:39:10.933Z,100540.50
2019-02-09T19:42:36.677Z,100542.55
2019-02-09T19:46:02.288Z,100548.45
2019-02-09T19:49:27.858Z,100548.09
2019-02-09T19:52:53.459Z,100543.03
2019-02-09T19:56:19.445Z,100548.47
2019-02-09T19:59:45.024Z,100540.40
2019-02-09T20:03:11.199Z,100539.64
2019-02-09T20:06:36.796Z,100544.62
2019-02-09T20:10:02.398Z,100526.38
2019-02-09T20:13:28.025Z,100532.67
2019-02-09T20:16:53.596Z,100539.37
2019-02-09T20:20:19.399Z,100535.33
2019-02-09T20:23:44.977Z,100533.88
2019-02-09T20:27:10.908Z,100539.10
2019-02-09T20:30:37.028Z,100527.98
2019-02-09T20:34:02.678Z,100541.33
2019-02-09T20:37:28.314Z,100537.70
2019-02-09T20:40:59.323Z,100534.77
2019-02-09T20:44:24.928Z,100540.12
2019-02-09T20:47:50.589Z,100537.94
2019-02-09T20:51:16.192Z,100529.47
2019-02-09T20:54:41.870Z,100536.44
2019-02-09T20:58:10.699Z,100530.84
2019-02-09T21:01:55.505Z,100536.28
2019-02-09T21:05:41.598Z,100540.31
2019-02-09T21:09:26.925Z,100537.89
2019-02-09T21:17:07.320Z,100534.84
2019-02-09T21:20:51.974Z,100537.34
2019-02-09T21:24:36.635Z,100539.13
2019-02-09T21:28:21.334Z,100535.25
2019-02-09T21:32:06.059Z,100535.73
2019-02-09T21:35:44.267Z,100538.97
2019-02-09T21:39:33.774Z,100537.05
2019-02-09T21:47:07.234Z,100547.80
2019-02-09T21:58:57.675Z,100519.63
2019-02-09T22:02:42.943Z,100524.58
2019-02-09T22:06:28.636Z,100515.70
2019-02-09T22:10:34.368Z,100512.52
2019-02-09T22:18:24.291Z,100510.44
2019-02-09T22:22:09.406Z,100499.29
2019-02-09T22:26:14.924Z,100509.69
2019-02-09T22:37:55.302Z,100481.86
2019-02-09T22:41:39.940Z,100483.61
2019-02-09T22:49:29.221Z,100484.91
2019-02-09T22:53:13.878Z,100471.42
2019-02-09T22:56:58.523Z,100470.79
2019-02-09T23:01:21.284Z,100464.74
2019-02-09T23:05:34.745Z,100452.21
2019-02-09T23:09:24.496Z,100444.65
2019-02-09T23:13:09.545Z,100443.27
2019-02-09T23:16:54.163Z,100439.41
2019-02-09T23:20:38.824Z,100431.02
2019-02-09T23:28:26.981Z,100413.53
2019-02-09T23:32:11.674Z,100411.58
2019-02-09T23:35:48.831Z,100398.08
2019-02-09T23:39:33.480Z,100405.53
2019-02-09T23:43:18.107Z,100396.22
2019-02-09T23:47:02.745Z,100379.80
2019-02-09T23:50:47.836Z,100367.56
2019-02-09T23:54:32.766Z,100362.97
2019-02-09T23:58:17.398Z,100371.00
